sensor_id;sensor_type;location;lat;lon;timestamp;P1;durP1;ratioP1;P2;durP2;ratioP2
1136;SDS011;557;48.466;7.950;2023-02-01T00:01:58;14.83;;;6.57;;
1136;SDS011;557;48.466;7.950;2023-02-01T00:04:45;10.80;;;6.77;;
1136;SDS011;557;48.466;7.950;2023-02-01T00:07:33;10.00;;;5.73;;
1136;SDS011;557;48.466;7.950;2023-02-01T00:10:20;11.30;;;6.67;;
1136;SDS011;557;48.466;7.950;2023-02-01T00:13:09;12.63;;;6.73;;
1136;SDS011;557;48.466;7.950;2023-02-01T00:16:02;11.00;;;6.83;;
1136;SDS011;557;48.466;7.950;2023-02-01T00:18:50;11.93;;;6.87;;
1136;SDS011;557;48.466;7.950;2023-02-01T00:21:42;10.67;;;6.10;;
1136;SDS011;557;48.466;7.950;2023-02-01T00:24:30;8.67;;;6.00;;
1136;SDS011;557;48.466;7.950;2023-02-01T00:27:18;9.87;;;6.70;;
1136;SDS011;557;48.466;7.950;2023-02-01T00:30:09;13.83;;;7.20;;
1136;SDS011;557;48.466;7.950;2023-02-01T00:32:57;12.80;;;6.90;;
1136;SDS011;557;48.466;7.950;2023-02-01T00:35:46;11.37;;;6.23;;
1136;SDS011;557;48.466;7.950;2023-02-01T00:38:33;10.23;;;6.20;;
1136;SDS011;557;48.466;7.950;2023-02-01T00:41:24;10.73;;;5.80;;
1136;SDS011;557;48.466;7.950;2023-02-01T00:44:12;10.13;;;6.10;;
1136;SDS011;557;48.466;7.950;2023-02-01T00:47:00;10.70;;;6.20;;
1136;SDS011;557;48.466;7.950;2023-02-01T00:49:48;11.80;;;6.50;;
1136;SDS011;557;48.466;7.950;2023-02-01T00:52:35;8.87;;;5.30;;
1136;SDS011;557;48.466;7.950;2023-02-01T00:55:23;9.30;;;5.53;;
1136;SDS011;557;48.466;7.950;2023-02-01T00:58:10;9.90;;;5.93;;
1136;SDS011;557;48.466;7.950;2023-02-01T01:01:00;7.50;;;5.40;;
1136;SDS011;557;48.466;7.950;2023-02-01T01:03:51;10.00;;;5.37;;
1136;SDS011;557;48.466;7.950;2023-02-01T01:06:40;9.27;;;5.40;;
1136;SDS011;557;48.466;7.950;2023-02-01T01:09:29;8.70;;;5.23;;
1136;SDS011;557;48.466;7.950;2023-02-01T01:12:16;8.50;;;5.37;;
1136;SDS011;557;48.466;7.950;2023-02-01T01:15:05;13.20;;;5.57;;
1136;SDS011;557;48.466;7.950;2023-02-01T01:17:54;9.43;;;5.17;;
1136;SDS011;557;48.466;7.950;2023-02-01T01:20:42;9.30;;;5.30;;
1136;SDS011;557;48.466;7.950;2023-02-01T01:23:30;6.90;;;4.77;;
1136;SDS011;557;48.466;7.950;2023-02-01T01:26:18;11.40;;;5.20;;
1136;SDS011;557;48.466;7.950;2023-02-01T01:29:08;7.90;;;4.60;;
1136;SDS011;557;48.466;7.950;2023-02-01T01:31:56;10.03;;;5.60;;
1136;SDS011;557;48.466;7.950;2023-02-01T01:34:43;6.50;;;3.90;;
1136;SDS011;557;48.466;7.950;2023-02-01T01:37:32;7.27;;;4.13;;
1136;SDS011;557;48.466;7.950;2023-02-01T01:40:21;8.43;;;4.57;;
1136;SDS011;557;48.466;7.950;2023-02-01T01:43:12;8.47;;;4.43;;
1136;SDS011;557;48.466;7.950;2023-02-01T01:46:00;6.50;;;4.10;;
1136;SDS011;557;48.466;7.950;2023-02-01T01:48:49;9.10;;;4.00;;
1136;SDS011;557;48.466;7.950;2023-02-01T01:51:42;6.73;;;4.40;;
1136;SDS011;557;48.466;7.950;2023-02-01T01:54:37;6.27;;;4.30;;
1136;SDS011;557;48.466;7.950;2023-02-01T01:57:28;7.20;;;4.03;;
1136;SDS011;557;48.466;7.950;2023-02-01T02:00:19;5.60;;;3.97;;
1136;SDS011;557;48.466;7.950;2023-02-01T02:03:08;11.60;;;4.73;;
1136;SDS011;557;48.466;7.950;2023-02-01T02:06:01;7.50;;;4.47;;
1136;SDS011;557;48.466;7.950;2023-02-01T02:08:50;5.93;;;4.23;;
1136;SDS011;557;48.466;7.950;2023-02-01T02:11:39;7.93;;;5.20;;
1136;SDS011;557;48.466;7.950;2023-02-01T02:14:27;7.43;;;4.23;;
1136;SDS011;557;48.466;7.950;2023-02-01T02:17:21;5.57;;;3.80;;
1136;SDS011;557;48.466;7.950;2023-02-01T02:27:07;5.43;;;3.57;;
1136;SDS011;557;48.466;7.950;2023-02-01T02:33:55;6.93;;;4.73;;
1136;SDS011;557;48.466;7.950;2023-02-01T02:36:55;7.40;;;3.87;;
1136;SDS011;557;48.466;7.950;2023-02-01T02:39:52;7.13;;;4.70;;
1136;SDS011;557;48.466;7.950;2023-02-01T02:42:46;8.00;;;4.87;;
1136;SDS011;557;48.466;7.950;2023-02-01T02:45:59;8.10;;;4.57;;
1136;SDS011;557;48.466;7.950;2023-02-01T02:49:11;7.97;;;4.67;;
1136;SDS011;557;48.466;7.950;2023-02-01T02:52:02;9.50;;;4.30;;
1136;SDS011;557;48.466;7.950;2023-02-01T02:55:15;7.00;;;4.10;;
1136;SDS011;557;48.466;7.950;2023-02-01T02:58:04;9.90;;;4.40;;
1136;SDS011;557;48.466;7.950;2023-02-01T03:01:11;5.70;;;3.70;;
1136;SDS011;557;48.466;7.950;2023-02-01T03:04:17;8.60;;;4.43;;
1136;SDS011;557;48.466;7.950;2023-02-01T03:07:10;5.30;;;3.40;;
1136;SDS011;557;48.466;7.950;2023-02-01T03:09:59;7.43;;;4.00;;
1136;SDS011;557;48.466;7.950;2023-02-01T03:12:50;5.30;;;3.60;;
1136;SDS011;557;48.466;7.950;2023-02-01T03:15:44;6.97;;;3.43;;
1136;SDS011;557;48.466;7.950;2023-02-01T03:18:39;7.40;;;3.50;;
1136;SDS011;557;48.466;7.950;2023-02-01T03:21:34;11.43;;;4.40;;
1136;SDS011;557;48.466;7.950;2023-02-01T03:24:25;5.70;;;3.23;;
1136;SDS011;557;48.466;7.950;2023-02-01T03:27:20;6.57;;;3.00;;
1136;SDS011;557;48.466;7.950;2023-02-01T03:30:13;8.03;;;4.33;;
1136;SDS011;557;48.466;7.950;2023-02-01T03:33:06;5.80;;;3.17;;
1136;SDS011;557;48.466;7.950;2023-02-01T03:36:02;7.77;;;3.60;;
1136;SDS011;557;48.466;7.950;2023-02-01T03:39:00;5.70;;;3.87;;
1136;SDS011;557;48.466;7.950;2023-02-01T03:41:50;5.83;;;3.53;;
1136;SDS011;557;48.466;7.950;2023-02-01T03:44:41;4.97;;;2.90;;
1136;SDS011;557;48.466;7.950;2023-02-01T03:47:33;5.53;;;3.33;;
1136;SDS011;557;48.466;7.950;2023-02-01T03:50:24;11.67;;;3.40;;
1136;SDS011;557;48.466;7.950;2023-02-01T03:53:14;7.60;;;3.57;;
1136;SDS011;557;48.466;7.950;2023-02-01T03:56:06;5.00;;;3.50;;
1136;SDS011;557;48.466;7.950;2023-02-01T03:58:54;6.57;;;3.77;;
1136;SDS011;557;48.466;7.950;2023-02-01T04:01:45;3.77;;;2.47;;
1136;SDS011;557;48.466;7.950;2023-02-01T04:04:32;5.10;;;2.73;;
1136;SDS011;557;48.466;7.950;2023-02-01T04:07:20;6.30;;;2.80;;
1136;SDS011;557;48.466;7.950;2023-02-01T04:10:08;4.73;;;3.00;;
1136;SDS011;557;48.466;7.950;2023-02-01T04:12:58;4.27;;;2.70;;
1136;SDS011;557;48.466;7.950;2023-02-01T04:15:46;7.67;;;2.87;;
1136;SDS011;557;48.466;7.950;2023-02-01T04:18:35;6.63;;;2.80;;
1136;SDS011;557;48.466;7.950;2023-02-01T04:21:22;3.60;;;1.70;;
1136;SDS011;557;48.466;7.950;2023-02-01T04:24:10;3.30;;;2.10;;
1136;SDS011;557;48.466;7.950;2023-02-01T04:26:57;6.77;;;2.30;;
1136;SDS011;557;48.466;7.950;2023-02-01T04:29:46;3.33;;;1.53;;
1136;SDS011;557;48.466;7.950;2023-02-01T04:32:35;4.70;;;2.30;;
1136;SDS011;557;48.466;7.950;2023-02-01T04:35:22;4.50;;;2.13;;
1136;SDS011;557;48.466;7.950;2023-02-01T04:38:09;2.73;;;1.77;;
1136;SDS011;557;48.466;7.950;2023-02-01T04:40:57;3.43;;;2.20;;
1136;SDS011;557;48.466;7.950;2023-02-01T04:43:45;3.70;;;2.30;;
1136;SDS011;557;48.466;7.950;2023-02-01T04:46:33;2.83;;;1.83;;
1136;SDS011;557;48.466;7.950;2023-02-01T04:49:21;2.63;;;1.63;;
1136;SDS011;557;48.466;7.950;2023-02-01T04:52:08;2.90;;;1.73;;
1136;SDS011;557;48.466;7.950;2023-02-01T04:54:56;3.00;;;1.63;;
1136;SDS011;557;48.466;7.950;2023-02-01T04:57:45;3.07;;;1.80;;
1136;SDS011;557;48.466;7.950;2023-02-01T05:00:32;4.00;;;2.03;;
1136;SDS011;557;48.466;7.950;2023-02-01T05:03:21;5.67;;;1.90;;
1136;SDS011;557;48.466;7.950;2023-02-01T05:06:09;4.13;;;2.10;;
1136;SDS011;557;48.466;7.950;2023-02-01T05:08:57;4.73;;;2.30;;
1136;SDS011;557;48.466;7.950;2023-02-01T05:11:44;4.27;;;2.70;;
1136;SDS011;557;48.466;7.950;2023-02-01T05:14:49;4.70;;;1.90;;
1136;SDS011;557;48.466;7.950;2023-02-01T05:17:37;5.10;;;2.13;;
1136;SDS011;557;48.466;7.950;2023-02-01T05:20:26;3.73;;;1.93;;
1136;SDS011;557;48.466;7.950;2023-02-01T05:23:14;3.80;;;2.80;;
1136;SDS011;557;48.466;7.950;2023-02-01T05:26:01;3.33;;;2.00;;
1136;SDS011;557;48.466;7.950;2023-02-01T05:28:48;2.90;;;1.77;;
1136;SDS011;557;48.466;7.950;2023-02-01T05:31:36;4.80;;;2.67;;
1136;SDS011;557;48.466;7.950;2023-02-01T05:34:23;9.37;;;3.50;;
1136;SDS011;557;48.466;7.950;2023-02-01T05:37:12;4.47;;;2.37;;
1136;SDS011;557;48.466;7.950;2023-02-01T05:39:59;5.63;;;2.43;;
1136;SDS011;557;48.466;7.950;2023-02-01T05:42:47;3.63;;;2.27;;
1136;SDS011;557;48.466;7.950;2023-02-01T05:45:34;4.17;;;2.30;;
1136;SDS011;557;48.466;7.950;2023-02-01T05:48:22;3.33;;;2.07;;
1136;SDS011;557;48.466;7.950;2023-02-01T05:51:09;4.87;;;2.87;;
1136;SDS011;557;48.466;7.950;2023-02-01T05:53:59;3.17;;;2.13;;
1136;SDS011;557;48.466;7.950;2023-02-01T05:56:46;4.20;;;2.47;;
1136;SDS011;557;48.466;7.950;2023-02-01T05:59:33;3.10;;;2.17;;
1136;SDS011;557;48.466;7.950;2023-02-01T06:02:26;4.50;;;2.40;;
1136;SDS011;557;48.466;7.950;2023-02-01T06:05:13;7.30;;;3.07;;
1136;SDS011;557;48.466;7.950;2023-02-01T06:08:01;5.13;;;2.70;;
1136;SDS011;557;48.466;7.950;2023-02-01T06:10:50;3.30;;;2.47;;
1136;SDS011;557;48.466;7.950;2023-02-01T06:13:37;4.30;;;2.10;;
1136;SDS011;557;48.466;7.950;2023-02-01T06:16:24;6.80;;;2.80;;
1136;SDS011;557;48.466;7.950;2023-02-01T06:19:12;5.33;;;3.17;;
1136;SDS011;557;48.466;7.950;2023-02-01T06:22:00;6.70;;;2.60;;
1136;SDS011;557;48.466;7.950;2023-02-01T06:24:51;4.27;;;2.03;;
1136;SDS011;557;48.466;7.950;2023-02-01T06:27:40;4.80;;;2.23;;
1136;SDS011;557;48.466;7.950;2023-02-01T06:30:27;5.87;;;1.77;;
1136;SDS011;557;48.466;7.950;2023-02-01T06:33:15;4.80;;;2.00;;
1136;SDS011;557;48.466;7.950;2023-02-01T06:36:03;4.17;;;2.03;;
1136;SDS011;557;48.466;7.950;2023-02-01T06:38:52;3.93;;;2.60;;
1136;SDS011;557;48.466;7.950;2023-02-01T06:41:41;10.43;;;2.97;;
1136;SDS011;557;48.466;7.950;2023-02-01T06:44:30;2.90;;;2.10;;
1136;SDS011;557;48.466;7.950;2023-02-01T06:47:17;5.37;;;3.20;;
1136;SDS011;557;48.466;7.950;2023-02-01T06:50:05;4.60;;;2.20;;
1136;SDS011;557;48.466;7.950;2023-02-01T06:52:54;5.80;;;2.77;;
1136;SDS011;557;48.466;7.950;2023-02-01T06:55:42;5.27;;;2.43;;
1136;SDS011;557;48.466;7.950;2023-02-01T06:58:38;4.47;;;2.63;;
1136;SDS011;557;48.466;7.950;2023-02-01T07:01:27;5.23;;;2.47;;
1136;SDS011;557;48.466;7.950;2023-02-01T07:04:14;4.67;;;2.73;;
1136;SDS011;557;48.466;7.950;2023-02-01T07:07:01;4.57;;;3.03;;
1136;SDS011;557;48.466;7.950;2023-02-01T07:09:49;3.87;;;2.40;;
1136;SDS011;557;48.466;7.950;2023-02-01T07:12:39;2.80;;;2.03;;
1136;SDS011;557;48.466;7.950;2023-02-01T07:15:26;3.27;;;1.67;;
1136;SDS011;557;48.466;7.950;2023-02-01T07:18:15;4.60;;;2.20;;
1136;SDS011;557;48.466;7.950;2023-02-01T07:21:03;4.30;;;2.50;;
1136;SDS011;557;48.466;7.950;2023-02-01T07:23:50;2.80;;;1.63;;
1136;SDS011;557;48.466;7.950;2023-02-01T07:26:37;3.43;;;1.70;;
1136;SDS011;557;48.466;7.950;2023-02-01T07:29:25;3.60;;;2.00;;
1136;SDS011;557;48.466;7.950;2023-02-01T07:32:12;2.50;;;1.50;;
1136;SDS011;557;48.466;7.950;2023-02-01T07:35:05;4.07;;;1.93;;
1136;SDS011;557;48.466;7.950;2023-02-01T07:37:53;3.87;;;2.70;;
1136;SDS011;557;48.466;7.950;2023-02-01T07:40:40;5.97;;;2.07;;
1136;SDS011;557;48.466;7.950;2023-02-01T07:43:28;2.77;;;1.50;;
1136;SDS011;557;48.466;7.950;2023-02-01T07:46:15;4.37;;;3.03;;
1136;SDS011;557;48.466;7.950;2023-02-01T07:49:03;4.97;;;2.50;;
1136;SDS011;557;48.466;7.950;2023-02-01T07:51:52;4.97;;;2.60;;
1136;SDS011;557;48.466;7.950;2023-02-01T07:54:39;5.03;;;2.90;;
1136;SDS011;557;48.466;7.950;2023-02-01T07:57:26;7.03;;;3.17;;
1136;SDS011;557;48.466;7.950;2023-02-01T08:00:14;4.03;;;2.40;;
1136;SDS011;557;48.466;7.950;2023-02-01T08:03:19;4.57;;;2.30;;
1136;SDS011;557;48.466;7.950;2023-02-01T08:06:06;2.70;;;1.70;;
1136;SDS011;557;48.466;7.950;2023-02-01T08:08:55;4.43;;;2.20;;
1136;SDS011;557;48.466;7.950;2023-02-01T08:11:43;3.97;;;1.93;;
1136;SDS011;557;48.466;7.950;2023-02-01T08:14:30;2.97;;;1.63;;
1136;SDS011;557;48.466;7.950;2023-02-01T08:17:17;3.37;;;1.90;;
1136;SDS011;557;48.466;7.950;2023-02-01T08:20:05;3.07;;;1.90;;
1136;SDS011;557;48.466;7.950;2023-02-01T08:22:53;3.70;;;1.87;;
1136;SDS011;557;48.466;7.950;2023-02-01T08:25:42;5.33;;;2.10;;
1136;SDS011;557;48.466;7.950;2023-02-01T08:28:30;4.93;;;1.70;;
1136;SDS011;557;48.466;7.950;2023-02-01T08:31:19;2.53;;;1.70;;
1136;SDS011;557;48.466;7.950;2023-02-01T08:34:08;2.43;;;1.60;;
1136;SDS011;557;48.466;7.950;2023-02-01T08:36:57;4.60;;;2.43;;
1136;SDS011;557;48.466;7.950;2023-02-01T08:39:45;3.00;;;1.67;;
1136;SDS011;557;48.466;7.950;2023-02-01T08:42:36;3.57;;;2.00;;
1136;SDS011;557;48.466;7.950;2023-02-01T08:45:39;4.53;;;2.43;;
1136;SDS011;557;48.466;7.950;2023-02-01T08:48:27;4.40;;;1.77;;
1136;SDS011;557;48.466;7.950;2023-02-01T08:51:18;6.33;;;2.60;;
1136;SDS011;557;48.466;7.950;2023-02-01T08:54:07;2.70;;;1.90;;
1136;SDS011;557;48.466;7.950;2023-02-01T08:56:55;3.00;;;1.90;;
1136;SDS011;557;48.466;7.950;2023-02-01T08:59:43;2.43;;;1.97;;
1136;SDS011;557;48.466;7.950;2023-02-01T09:02:31;3.33;;;1.70;;
1136;SDS011;557;48.466;7.950;2023-02-01T09:05:18;2.77;;;1.67;;
1136;SDS011;557;48.466;7.950;2023-02-01T09:08:07;3.10;;;1.70;;
1136;SDS011;557;48.466;7.950;2023-02-01T09:10:58;10.60;;;2.57;;
1136;SDS011;557;48.466;7.950;2023-02-01T09:13:46;5.70;;;2.10;;
1136;SDS011;557;48.466;7.950;2023-02-01T09:16:35;5.30;;;2.43;;
1136;SDS011;557;48.466;7.950;2023-02-01T09:19:22;4.73;;;2.10;;
1136;SDS011;557;48.466;7.950;2023-02-01T09:22:09;4.70;;;2.40;;
1136;SDS011;557;48.466;7.950;2023-02-01T09:24:57;3.33;;;2.43;;
1136;SDS011;557;48.466;7.950;2023-02-01T09:27:44;3.87;;;2.30;;
1136;SDS011;557;48.466;7.950;2023-02-01T09:30:33;2.80;;;1.97;;
1136;SDS011;557;48.466;7.950;2023-02-01T09:33:22;3.83;;;2.10;;
1136;SDS011;557;48.466;7.950;2023-02-01T09:36:10;4.90;;;2.50;;
1136;SDS011;557;48.466;7.950;2023-02-01T09:38:57;3.13;;;2.20;;
1136;SDS011;557;48.466;7.950;2023-02-01T09:41:48;5.77;;;2.27;;
1136;SDS011;557;48.466;7.950;2023-02-01T09:44:46;3.27;;;1.53;;
1136;SDS011;557;48.466;7.950;2023-02-01T09:47:43;7.33;;;2.47;;
1136;SDS011;557;48.466;7.950;2023-02-01T09:50:36;6.80;;;2.60;;
1136;SDS011;557;48.466;7.950;2023-02-01T09:53:27;5.10;;;2.50;;
1136;SDS011;557;48.466;7.950;2023-02-01T09:56:20;5.90;;;2.13;;
1136;SDS011;557;48.466;7.950;2023-02-01T09:59:12;6.37;;;2.47;;
1136;SDS011;557;48.466;7.950;2023-02-01T10:02:11;4.27;;;1.77;;
1136;SDS011;557;48.466;7.950;2023-02-01T10:05:01;4.43;;;2.63;;
1136;SDS011;557;48.466;7.950;2023-02-01T10:07:54;2.80;;;1.70;;
1136;SDS011;557;48.466;7.950;2023-02-01T10:10:51;3.77;;;1.97;;
1136;SDS011;557;48.466;7.950;2023-02-01T10:13:44;3.70;;;2.10;;
1136;SDS011;557;48.466;7.950;2023-02-01T10:16:40;3.93;;;2.30;;
1136;SDS011;557;48.466;7.950;2023-02-01T10:19:39;3.23;;;2.10;;
1136;SDS011;557;48.466;7.950;2023-02-01T10:22:39;4.20;;;2.90;;
1136;SDS011;557;48.466;7.950;2023-02-01T10:25:31;5.83;;;3.60;;
1136;SDS011;557;48.466;7.950;2023-02-01T10:28:22;4.40;;;2.20;;
1136;SDS011;557;48.466;7.950;2023-02-01T10:31:11;5.30;;;2.77;;
1136;SDS011;557;48.466;7.950;2023-02-01T10:33:59;3.40;;;2.30;;
1136;SDS011;557;48.466;7.950;2023-02-01T10:36:55;5.70;;;2.77;;
1136;SDS011;557;48.466;7.950;2023-02-01T10:39:43;4.97;;;2.33;;
1136;SDS011;557;48.466;7.950;2023-02-01T10:42:33;4.83;;;2.40;;
1136;SDS011;557;48.466;7.950;2023-02-01T10:45:21;4.67;;;2.27;;
1136;SDS011;557;48.466;7.950;2023-02-01T10:48:11;4.90;;;3.10;;
1136;SDS011;557;48.466;7.950;2023-02-01T10:50:59;4.20;;;2.70;;
1136;SDS011;557;48.466;7.950;2023-02-01T10:53:50;3.70;;;2.30;;
1136;SDS011;557;48.466;7.950;2023-02-01T10:56:42;7.10;;;3.00;;
1136;SDS011;557;48.466;7.950;2023-02-01T10:59:32;4.67;;;2.13;;
1136;SDS011;557;48.466;7.950;2023-02-01T11:02:24;2.77;;;2.00;;
1136;SDS011;557;48.466;7.950;2023-02-01T11:05:15;2.67;;;1.70;;
1136;SDS011;557;48.466;7.950;2023-02-01T11:08:04;7.07;;;3.80;;
1136;SDS011;557;48.466;7.950;2023-02-01T11:10:56;3.20;;;2.47;;
1136;SDS011;557;48.466;7.950;2023-02-01T11:13:51;4.83;;;2.50;;
1136;SDS011;557;48.466;7.950;2023-02-01T11:16:43;3.90;;;2.70;;
1136;SDS011;557;48.466;7.950;2023-02-01T11:19:34;4.40;;;2.33;;
1136;SDS011;557;48.466;7.950;2023-02-01T11:22:45;3.97;;;2.40;;
1136;SDS011;557;48.466;7.950;2023-02-01T11:25:33;3.90;;;2.00;;
1136;SDS011;557;48.466;7.950;2023-02-01T11:28:23;4.00;;;2.57;;
1136;SDS011;557;48.466;7.950;2023-02-01T11:31:14;4.90;;;2.50;;
1136;SDS011;557;48.466;7.950;2023-02-01T11:34:05;4.23;;;2.47;;
1136;SDS011;557;48.466;7.950;2023-02-01T11:36:58;5.67;;;4.10;;
1136;SDS011;557;48.466;7.950;2023-02-01T11:39:55;5.73;;;3.83;;
1136;SDS011;557;48.466;7.950;2023-02-01T11:42:52;3.37;;;2.20;;
1136;SDS011;557;48.466;7.950;2023-02-01T11:45:41;6.30;;;2.93;;
1136;SDS011;557;48.466;7.950;2023-02-01T11:48:39;5.53;;;2.63;;
1136;SDS011;557;48.466;7.950;2023-02-01T11:51:31;3.47;;;2.60;;
1136;SDS011;557;48.466;7.950;2023-02-01T11:54:39;4.77;;;2.53;;
1136;SDS011;557;48.466;7.950;2023-02-01T11:57:43;6.07;;;2.70;;
1136;SDS011;557;48.466;7.950;2023-02-01T12:00:45;5.43;;;2.80;;
1136;SDS011;557;48.466;7.950;2023-02-01T12:03:57;5.80;;;2.83;;
1136;SDS011;557;48.466;7.950;2023-02-01T12:06:57;3.83;;;2.80;;
1136;SDS011;557;48.466;7.950;2023-02-01T12:09:54;6.00;;;3.13;;
1136;SDS011;557;48.466;7.950;2023-02-01T12:12:54;5.70;;;2.70;;
1136;SDS011;557;48.466;7.950;2023-02-01T12:15:53;7.23;;;2.93;;
1136;SDS011;557;48.466;7.950;2023-02-01T12:22:14;5.50;;;2.43;;
1136;SDS011;557;48.466;7.950;2023-02-01T12:25:17;5.90;;;3.00;;
1136;SDS011;557;48.466;7.950;2023-02-01T12:28:31;7.87;;;3.07;;
1136;SDS011;557;48.466;7.950;2023-02-01T12:31:40;7.50;;;2.53;;
1136;SDS011;557;48.466;7.950;2023-02-01T12:34:58;5.10;;;2.47;;
1136;SDS011;557;48.466;7.950;2023-02-01T12:38:01;6.80;;;2.60;;
1136;SDS011;557;48.466;7.950;2023-02-01T12:41:08;5.60;;;2.60;;
1136;SDS011;557;48.466;7.950;2023-02-01T12:44:11;5.63;;;2.83;;
1136;SDS011;557;48.466;7.950;2023-02-01T12:47:06;5.17;;;3.47;;
1136;SDS011;557;48.466;7.950;2023-02-01T12:50:00;4.37;;;2.80;;
1136;SDS011;557;48.466;7.950;2023-02-01T12:52:50;4.80;;;2.80;;
1136;SDS011;557;48.466;7.950;2023-02-01T12:55:41;3.23;;;2.10;;
1136;SDS011;557;48.466;7.950;2023-02-01T12:58:36;8.80;;;2.50;;
1136;SDS011;557;48.466;7.950;2023-02-01T13:01:28;5.97;;;2.70;;
1136;SDS011;557;48.466;7.950;2023-02-01T13:04:23;6.33;;;2.40;;
1136;SDS011;557;48.466;7.950;2023-02-01T13:07:14;7.10;;;2.60;;
1136;SDS011;557;48.466;7.950;2023-02-01T13:10:11;4.13;;;2.40;;
1136;SDS011;557;48.466;7.950;2023-02-01T13:13:08;4.60;;;2.20;;
1136;SDS011;557;48.466;7.950;2023-02-01T13:16:02;2.43;;;1.63;;
1136;SDS011;557;48.466;7.950;2023-02-01T13:18:53;3.93;;;2.27;;
1136;SDS011;557;48.466;7.950;2023-02-01T13:21:47;3.53;;;2.00;;
1136;SDS011;557;48.466;7.950;2023-02-01T13:24:39;8.47;;;3.27;;
1136;SDS011;557;48.466;7.950;2023-02-01T13:27:30;3.40;;;2.13;;
1136;SDS011;557;48.466;7.950;2023-02-01T13:30:22;11.93;;;3.70;;
1136;SDS011;557;48.466;7.950;2023-02-01T13:33:19;9.13;;;3.90;;
1136;SDS011;557;48.466;7.950;2023-02-01T13:36:18;6.80;;;1.80;;
1136;SDS011;557;48.466;7.950;2023-02-01T13:39:43;4.87;;;2.60;;
1136;SDS011;557;48.466;7.950;2023-02-01T13:42:41;7.80;;;3.30;;
1136;SDS011;557;48.466;7.950;2023-02-01T13:45:36;5.40;;;2.23;;
1136;SDS011;557;48.466;7.950;2023-02-01T13:48:29;6.50;;;2.57;;
1136;SDS011;557;48.466;7.950;2023-02-01T13:54:28;11.20;;;2.70;;
1136;SDS011;557;48.466;7.950;2023-02-01T13:57:30;12.37;;;5.23;;
1136;SDS011;557;48.466;7.950;2023-02-01T14:00:23;5.50;;;2.17;;
1136;SDS011;557;48.466;7.950;2023-02-01T14:03:18;7.00;;;2.60;;
1136;SDS011;557;48.466;7.950;2023-02-01T14:06:18;5.40;;;1.90;;
1136;SDS011;557;48.466;7.950;2023-02-01T14:09:32;5.83;;;2.57;;
1136;SDS011;557;48.466;7.950;2023-02-01T14:15:30;3.90;;;2.00;;
1136;SDS011;557;48.466;7.950;2023-02-01T14:21:47;4.50;;;3.43;;
1136;SDS011;557;48.466;7.950;2023-02-01T14:24:39;8.33;;;2.40;;
1136;SDS011;557;48.466;7.950;2023-02-01T14:27:28;8.40;;;3.10;;
1136;SDS011;557;48.466;7.950;2023-02-01T14:30:21;6.17;;;2.73;;
1136;SDS011;557;48.466;7.950;2023-02-01T14:33:17;8.93;;;2.50;;
1136;SDS011;557;48.466;7.950;2023-02-01T14:36:11;3.93;;;1.80;;
1136;SDS011;557;48.466;7.950;2023-02-01T14:39:01;3.33;;;1.83;;
1136;SDS011;557;48.466;7.950;2023-02-01T14:41:51;6.07;;;2.27;;
1136;SDS011;557;48.466;7.950;2023-02-01T14:44:42;8.60;;;3.20;;
1136;SDS011;557;48.466;7.950;2023-02-01T14:47:31;4.70;;;2.03;;
1136;SDS011;557;48.466;7.950;2023-02-01T14:50:31;5.80;;;2.67;;
1136;SDS011;557;48.466;7.950;2023-02-01T14:53:23;6.73;;;3.00;;
1136;SDS011;557;48.466;7.950;2023-02-01T14:56:19;11.20;;;2.90;;
1136;SDS011;557;48.466;7.950;2023-02-01T14:59:08;7.50;;;2.80;;
1136;SDS011;557;48.466;7.950;2023-02-01T15:02:01;9.43;;;2.60;;
1136;SDS011;557;48.466;7.950;2023-02-01T15:05:26;7.90;;;3.27;;
1136;SDS011;557;48.466;7.950;2023-02-01T15:08:20;7.33;;;3.17;;
1136;SDS011;557;48.466;7.950;2023-02-01T15:11:14;3.70;;;2.27;;
1136;SDS011;557;48.466;7.950;2023-02-01T15:14:02;8.47;;;2.63;;
1136;SDS011;557;48.466;7.950;2023-02-01T15:17:00;6.13;;;2.57;;
1136;SDS011;557;48.466;7.950;2023-02-01T15:19:54;5.50;;;2.10;;
1136;SDS011;557;48.466;7.950;2023-02-01T15:22:42;7.10;;;2.57;;
1136;SDS011;557;48.466;7.950;2023-02-01T15:25:40;10.17;;;2.43;;
1136;SDS011;557;48.466;7.950;2023-02-01T15:28:32;4.30;;;2.10;;
1136;SDS011;557;48.466;7.950;2023-02-01T15:31:30;11.10;;;4.03;;
1136;SDS011;557;48.466;7.950;2023-02-01T15:34:20;4.23;;;2.07;;
1136;SDS011;557;48.466;7.950;2023-02-01T15:37:07;6.27;;;2.50;;
1136;SDS011;557;48.466;7.950;2023-02-01T15:40:02;5.57;;;3.80;;
1136;SDS011;557;48.466;7.950;2023-02-01T15:42:53;8.40;;;4.40;;
1136;SDS011;557;48.466;7.950;2023-02-01T15:45:42;10.53;;;2.80;;
1136;SDS011;557;48.466;7.950;2023-02-01T15:48:31;11.23;;;5.90;;
1136;SDS011;557;48.466;7.950;2023-02-01T15:51:22;7.30;;;2.53;;
1136;SDS011;557;48.466;7.950;2023-02-01T15:54:16;3.60;;;1.83;;
1136;SDS011;557;48.466;7.950;2023-02-01T15:57:06;9.40;;;2.60;;
1136;SDS011;557;48.466;7.950;2023-02-01T15:59:54;6.57;;;2.30;;
1136;SDS011;557;48.466;7.950;2023-02-01T16:02:50;6.43;;;2.17;;
1136;SDS011;557;48.466;7.950;2023-02-01T16:05:40;9.97;;;3.20;;
1136;SDS011;557;48.466;7.950;2023-02-01T16:08:30;4.97;;;2.10;;
1136;SDS011;557;48.466;7.950;2023-02-01T16:11:21;6.33;;;2.43;;
1136;SDS011;557;48.466;7.950;2023-02-01T16:14:12;8.13;;;3.40;;
1136;SDS011;557;48.466;7.950;2023-02-01T16:17:02;5.20;;;2.13;;
1136;SDS011;557;48.466;7.950;2023-02-01T16:19:49;6.33;;;2.33;;
1136;SDS011;557;48.466;7.950;2023-02-01T16:22:37;7.17;;;2.30;;
1136;SDS011;557;48.466;7.950;2023-02-01T16:25:24;10.50;;;2.43;;
1136;SDS011;557;48.466;7.950;2023-02-01T16:28:11;5.63;;;3.07;;
1136;SDS011;557;48.466;7.950;2023-02-01T16:30:59;5.20;;;2.67;;
1136;SDS011;557;48.466;7.950;2023-02-01T16:33:49;5.33;;;2.80;;
1136;SDS011;557;48.466;7.950;2023-02-01T16:36:37;6.03;;;2.20;;
1136;SDS011;557;48.466;7.950;2023-02-01T16:39:24;5.10;;;2.73;;
1136;SDS011;557;48.466;7.950;2023-02-01T16:42:13;7.10;;;2.50;;
1136;SDS011;557;48.466;7.950;2023-02-01T16:45:01;6.67;;;2.30;;
1136;SDS011;557;48.466;7.950;2023-02-01T16:47:50;11.63;;;3.20;;
1136;SDS011;557;48.466;7.950;2023-02-01T16:50:41;8.67;;;3.07;;
1136;SDS011;557;48.466;7.950;2023-02-01T16:53:30;8.67;;;2.33;;
1136;SDS011;557;48.466;7.950;2023-02-01T16:56:18;4.30;;;2.30;;
1136;SDS011;557;48.466;7.950;2023-02-01T16:59:08;8.67;;;2.33;;
1136;SDS011;557;48.466;7.950;2023-02-01T17:01:55;12.97;;;3.20;;
1136;SDS011;557;48.466;7.950;2023-02-01T17:04:42;8.83;;;2.40;;
1136;SDS011;557;48.466;7.950;2023-02-01T17:07:31;13.10;;;5.00;;
1136;SDS011;557;48.466;7.950;2023-02-01T17:10:21;6.70;;;2.60;;
1136;SDS011;557;48.466;7.950;2023-02-01T17:13:12;3.47;;;2.33;;
1136;SDS011;557;48.466;7.950;2023-02-01T17:16:02;6.77;;;2.30;;
1136;SDS011;557;48.466;7.950;2023-02-01T17:18:52;3.33;;;2.20;;
1136;SDS011;557;48.466;7.950;2023-02-01T17:21:43;5.07;;;2.50;;
1136;SDS011;557;48.466;7.950;2023-02-01T17:24:33;4.83;;;2.30;;
1136;SDS011;557;48.466;7.950;2023-02-01T17:27:20;3.67;;;2.10;;
1136;SDS011;557;48.466;7.950;2023-02-01T17:30:08;5.30;;;3.00;;
1136;SDS011;557;48.466;7.950;2023-02-01T17:32:57;5.67;;;2.20;;
1136;SDS011;557;48.466;7.950;2023-02-01T17:35:44;5.47;;;2.17;;
1136;SDS011;557;48.466;7.950;2023-02-01T17:38:33;4.33;;;2.03;;
1136;SDS011;557;48.466;7.950;2023-02-01T17:41:21;9.20;;;3.03;;
1136;SDS011;557;48.466;7.950;2023-02-01T17:44:09;7.73;;;2.73;;
1136;SDS011;557;48.466;7.950;2023-02-01T17:47:03;8.07;;;4.17;;
1136;SDS011;557;48.466;7.950;2023-02-01T17:49:50;5.87;;;2.30;;
1136;SDS011;557;48.466;7.950;2023-02-01T17:52:41;12.07;;;3.13;;
1136;SDS011;557;48.466;7.950;2023-02-01T17:55:28;8.03;;;2.60;;
1136;SDS011;557;48.466;7.950;2023-02-01T17:58:17;11.93;;;3.10;;
1136;SDS011;557;48.466;7.950;2023-02-01T18:01:05;6.37;;;2.67;;
1136;SDS011;557;48.466;7.950;2023-02-01T18:03:55;7.83;;;2.90;;
1136;SDS011;557;48.466;7.950;2023-02-01T18:06:42;5.33;;;2.50;;
1136;SDS011;557;48.466;7.950;2023-02-01T18:09:30;8.37;;;2.53;;
1136;SDS011;557;48.466;7.950;2023-02-01T18:12:18;10.87;;;4.37;;
1136;SDS011;557;48.466;7.950;2023-02-01T18:15:18;8.30;;;3.07;;
1136;SDS011;557;48.466;7.950;2023-02-01T18:18:06;10.80;;;3.20;;
1136;SDS011;557;48.466;7.950;2023-02-01T18:20:54;8.33;;;3.20;;
1136;SDS011;557;48.466;7.950;2023-02-01T18:23:41;11.70;;;4.30;;